ABY118 OTHH-OMSJ
Flight info
| Callsign | ABY118 |
|---|---|
| Flight time | 0h 42m |
| Altitude | 21000 |
| Route | ALSEM3E/34R ALSEM L305 EMOTA R784 GONVI GONVI4M |
| Aircraft | A320/M-VGDW/C |
Departure
| Time | 2026-05-08 21:17 |
|---|---|
| Airport | Hamad International Airport (OTHH) |
Arrival
| Time | 2026-05-08 21:59 |
|---|---|
| Airport | Sharjah International Airport (OMSJ) |
| Time | Latitude | Longitude | Altitude | Speed | Heading |
|---|---|---|---|---|---|
| 2026-05-08 20:47 | 25.25966 | 51.60897 | 20 ft | 0 kts | 69° |
| 2026-05-08 21:06 | 25.25965 | 51.60891 | 20 ft | 2 kts | 69° |
| 2026-05-08 21:06 | 25.25958 | 51.60874 | 23 ft | 2 kts | 69° |
| 2026-05-08 21:06 | 25.25952 | 51.60857 | 21 ft | 2 kts | 69° |
| 2026-05-08 21:06 | 25.25946 | 51.60839 | 23 ft | 2 kts | 69° |
| 2026-05-08 21:07 | 25.25940 | 51.60822 | 23 ft | 2 kts | 69° |
| 2026-05-08 21:07 | 25.25933 | 51.60805 | 21 ft | 2 kts | 24° |
| 2026-05-08 21:07 | 25.25920 | 51.60802 | 24 ft | 0 kts | 327° |
| 2026-05-08 21:10 | 25.25942 | 51.60786 | 21 ft | 6 kts | 328° |
| 2026-05-08 21:10 | 25.25991 | 51.60761 | 20 ft | 9 kts | 338° |
| 2026-05-08 21:10 | 25.26064 | 51.60726 | 20 ft | 13 kts | 325° |
| 2026-05-08 21:10 | 25.26093 | 51.60619 | 22 ft | 17 kts | 299° |
| 2026-05-08 21:11 | 25.26201 | 51.60561 | 20 ft | 20 kts | 338° |
| 2026-05-08 21:11 | 25.26336 | 51.60500 | 21 ft | 21 kts | 338° |
| 2026-05-08 21:11 | 25.26477 | 51.60440 | 20 ft | 22 kts | 338° |
| 2026-05-08 21:11 | 25.26624 | 51.60375 | 20 ft | 24 kts | 338° |
| 2026-05-08 21:12 | 25.26781 | 51.60305 | 20 ft | 24 kts | 338° |
| 2026-05-08 21:12 | 25.26938 | 51.60236 | 20 ft | 25 kts | 338° |
| 2026-05-08 21:12 | 25.27025 | 51.60202 | 20 ft | 13 kts | 355° |
| 2026-05-08 21:12 | 25.27083 | 51.60274 | 22 ft | 17 kts | 71° |
| 2026-05-08 21:13 | 25.27146 | 51.60448 | 22 ft | 28 kts | 67° |
| 2026-05-08 21:13 | 25.27221 | 51.60653 | 20 ft | 29 kts | 68° |
| 2026-05-08 21:13 | 25.27299 | 51.60868 | 20 ft | 31 kts | 69° |
| 2026-05-08 21:13 | 25.27379 | 51.61091 | 21 ft | 32 kts | 68° |
| 2026-05-08 21:14 | 25.27434 | 51.61244 | 20 ft | 15 kts | 68° |
| 2026-05-08 21:14 | 25.27471 | 51.61350 | 20 ft | 13 kts | 69° |
| 2026-05-08 21:14 | 25.27505 | 51.61444 | 21 ft | 13 kts | 68° |
| 2026-05-08 21:14 | 25.27539 | 51.61530 | 20 ft | 7 kts | 67° |
| 2026-05-08 21:15 | 25.27559 | 51.61585 | 20 ft | 12 kts | 71° |
| 2026-05-08 21:15 | 25.27598 | 51.61686 | 20 ft | 15 kts | 65° |
| 2026-05-08 21:15 | 25.27606 | 51.61702 | 22 ft | 0 kts | 63° |
| 2026-05-08 21:15 | 25.27609 | 51.61708 | 21 ft | 5 kts | 62° |
| 2026-05-08 21:16 | 25.27676 | 51.61737 | 20 ft | 20 kts | 351° |
| 2026-05-08 21:16 | 25.27979 | 51.61608 | 21 ft | 82 kts | 338° |
| 2026-05-08 21:16 | 25.28705 | 51.61288 | 23 ft | 141 kts | 338° |
| 2026-05-08 21:16 | 25.29706 | 51.60849 | 467 ft | 156 kts | 338° |
| 2026-05-08 21:17 | 25.30722 | 51.60460 | 1269 ft | 155 kts | 356° |
| 2026-05-08 21:17 | 25.31784 | 51.60760 | 1930 ft | 167 kts | 18° |
| 2026-05-08 21:17 | 25.32895 | 51.61384 | 2225 ft | 192 kts | 21° |
| 2026-05-08 21:17 | 25.34141 | 51.62144 | 2610 ft | 216 kts | 23° |
| 2026-05-08 21:18 | 25.35545 | 51.62966 | 3023 ft | 240 kts | 22° |
| 2026-05-08 21:18 | 25.37061 | 51.63830 | 3742 ft | 243 kts | 23° |
| 2026-05-08 21:18 | 25.38530 | 51.64641 | 4876 ft | 235 kts | 23° |
| 2026-05-08 21:18 | 25.39952 | 51.65572 | 5585 ft | 247 kts | 37° |
| 2026-05-08 21:19 | 25.40958 | 51.67230 | 5931 ft | 278 kts | 71° |
| 2026-05-08 21:19 | 25.41187 | 51.69386 | 6476 ft | 293 kts | 86° |
| 2026-05-08 21:19 | 25.41289 | 51.71663 | 7207 ft | 299 kts | 86° |
| 2026-05-08 21:19 | 25.41389 | 51.73976 | 8046 ft | 302 kts | 85° |
| 2026-05-08 21:20 | 25.41494 | 51.76306 | 8918 ft | 303 kts | 86° |
| 2026-05-08 21:20 | 25.41604 | 51.78648 | 9781 ft | 306 kts | 85° |
| 2026-05-08 21:20 | 25.41721 | 51.81023 | 10515 ft | 312 kts | 86° |
| 2026-05-08 21:20 | 25.41842 | 51.83428 | 11270 ft | 315 kts | 87° |
| 2026-05-08 21:21 | 25.41962 | 51.85865 | 12021 ft | 320 kts | 88° |
| 2026-05-08 21:21 | 25.40934 | 51.92985 | 13393 ft | 356 kts | 105° |
| 2026-05-08 21:21 | 25.39400 | 52.00569 | 14540 ft | 386 kts | 104° |
| 2026-05-08 21:21 | 25.37035 | 52.12346 | 16998 ft | 399 kts | 105° |
| 2026-05-08 21:22 | 25.36165 | 52.24732 | 19129 ft | 419 kts | 78° |
| 2026-05-08 21:22 | 25.38599 | 52.37345 | 20918 ft | 433 kts | 80° |
| 2026-05-08 21:22 | 25.40925 | 52.49927 | 20927 ft | 447 kts | 80° |
| 2026-05-08 21:22 | 25.41561 | 52.53295 | 20838 ft | 446 kts | 80° |
| 2026-05-08 21:23 | 25.42192 | 52.56657 | 20853 ft | 446 kts | 80° |
| 2026-05-08 21:23 | 25.42820 | 52.60025 | 20851 ft | 446 kts | 80° |
| 2026-05-08 21:23 | 25.43446 | 52.63388 | 20848 ft | 446 kts | 80° |
| 2026-05-08 21:23 | 25.44070 | 52.66746 | 20848 ft | 446 kts | 80° |
| 2026-05-08 21:24 | 25.44695 | 52.70113 | 20843 ft | 446 kts | 80° |
| 2026-05-08 21:24 | 25.45318 | 52.73476 | 20843 ft | 446 kts | 80° |
| 2026-05-08 21:24 | 25.45944 | 52.76842 | 20836 ft | 446 kts | 80° |
| 2026-05-08 21:24 | 25.46568 | 52.80199 | 20835 ft | 446 kts | 80° |
| 2026-05-08 21:25 | 25.47193 | 52.83561 | 20837 ft | 446 kts | 79° |
| 2026-05-08 21:25 | 25.47880 | 52.86918 | 20830 ft | 447 kts | 77° |
| 2026-05-08 21:25 | 25.48659 | 52.90246 | 20831 ft | 447 kts | 76° |
| 2026-05-08 21:25 | 25.49503 | 52.93563 | 20831 ft | 448 kts | 75° |
| 2026-05-08 21:26 | 25.50373 | 52.96880 | 20827 ft | 448 kts | 75° |
| 2026-05-08 21:26 | 25.51238 | 53.00189 | 20829 ft | 448 kts | 75° |
| 2026-05-08 21:26 | 25.52088 | 53.03505 | 20826 ft | 448 kts | 76° |
| 2026-05-08 21:26 | 25.52919 | 53.06829 | 20825 ft | 448 kts | 76° |
| 2026-05-08 21:27 | 25.53736 | 53.10153 | 20821 ft | 448 kts | 76° |
| 2026-05-08 21:27 | 25.54546 | 53.13481 | 20824 ft | 448 kts | 76° |
| 2026-05-08 21:27 | 25.55352 | 53.16809 | 20822 ft | 448 kts | 77° |
| 2026-05-08 21:27 | 25.56157 | 53.20143 | 20827 ft | 448 kts | 76° |
| 2026-05-08 21:28 | 25.56964 | 53.23474 | 20828 ft | 448 kts | 76° |
| 2026-05-08 21:28 | 25.57775 | 53.26806 | 20822 ft | 448 kts | 76° |
| 2026-05-08 21:28 | 25.58585 | 53.30135 | 20828 ft | 448 kts | 76° |
| 2026-05-08 21:28 | 25.59397 | 53.33464 | 20823 ft | 448 kts | 76° |
| 2026-05-08 21:29 | 25.60210 | 53.36798 | 20818 ft | 448 kts | 77° |
| 2026-05-08 21:29 | 25.61019 | 53.40127 | 20820 ft | 448 kts | 77° |
| 2026-05-08 21:29 | 25.61817 | 53.43416 | 20817 ft | 448 kts | 76° |
| 2026-05-08 21:29 | 25.62625 | 53.46748 | 20815 ft | 448 kts | 76° |
| 2026-05-08 21:30 | 25.63432 | 53.50078 | 20814 ft | 448 kts | 76° |
| 2026-05-08 21:30 | 25.64241 | 53.53411 | 20816 ft | 448 kts | 76° |
| 2026-05-08 21:30 | 25.65046 | 53.56741 | 20811 ft | 448 kts | 77° |
| 2026-05-08 21:30 | 25.65851 | 53.60081 | 20814 ft | 448 kts | 77° |
| 2026-05-08 21:31 | 25.66655 | 53.63420 | 20809 ft | 448 kts | 77° |
| 2026-05-08 21:31 | 25.67457 | 53.66759 | 20813 ft | 448 kts | 76° |
| 2026-05-08 21:31 | 25.68259 | 53.70097 | 20813 ft | 448 kts | 77° |
| 2026-05-08 21:31 | 25.69059 | 53.73435 | 20808 ft | 448 kts | 77° |
| 2026-05-08 21:32 | 25.69856 | 53.76768 | 20805 ft | 448 kts | 77° |
| 2026-05-08 21:32 | 25.70661 | 53.80139 | 20809 ft | 458 kts | 77° |
| 2026-05-08 21:32 | 25.71475 | 53.83552 | 20808 ft | 471 kts | 77° |
| 2026-05-08 21:32 | 25.72320 | 53.87079 | 20807 ft | 474 kts | 77° |
| 2026-05-08 21:33 | 25.73169 | 53.90611 | 20803 ft | 473 kts | 77° |
| 2026-05-08 21:33 | 25.74015 | 53.94137 | 20805 ft | 474 kts | 76° |
| 2026-05-08 21:33 | 25.74859 | 53.97669 | 20799 ft | 473 kts | 77° |
| 2026-05-08 21:33 | 25.75711 | 54.01200 | 20799 ft | 474 kts | 76° |
| 2026-05-08 21:34 | 25.76667 | 54.04699 | 20797 ft | 474 kts | 73° |
| 2026-05-08 21:34 | 25.77736 | 54.08161 | 20796 ft | 475 kts | 72° |
| 2026-05-08 21:34 | 25.78875 | 54.11600 | 20797 ft | 475 kts | 71° |
| 2026-05-08 21:34 | 25.80038 | 54.15022 | 20789 ft | 474 kts | 71° |
| 2026-05-08 21:35 | 25.81195 | 54.18447 | 20786 ft | 473 kts | 71° |
| 2026-05-08 21:35 | 25.82313 | 54.21817 | 20793 ft | 456 kts | 71° |
| 2026-05-08 21:35 | 25.83377 | 54.25094 | 20616 ft | 446 kts | 72° |
| 2026-05-08 21:35 | 25.84409 | 54.28338 | 19928 ft | 444 kts | 72° |
| 2026-05-08 21:36 | 25.85414 | 54.31549 | 19358 ft | 438 kts | 72° |
| 2026-05-08 21:36 | 25.86401 | 54.34727 | 18803 ft | 432 kts | 73° |
| 2026-05-08 21:36 | 25.87171 | 54.37914 | 18242 ft | 424 kts | 84° |
| 2026-05-08 21:36 | 25.87306 | 54.41129 | 17875 ft | 409 kts | 95° |
| 2026-05-08 21:37 | 25.86891 | 54.44212 | 17494 ft | 400 kts | 107° |
| 2026-05-08 21:37 | 25.86063 | 54.47090 | 16908 ft | 394 kts | 112° |
| 2026-05-08 21:37 | 25.85164 | 54.49945 | 16199 ft | 388 kts | 111° |
| 2026-05-08 21:37 | 25.84278 | 54.52759 | 15231 ft | 384 kts | 111° |
| 2026-05-08 21:38 | 25.83402 | 54.55545 | 14299 ft | 381 kts | 111° |
| 2026-05-08 21:38 | 25.82533 | 54.58304 | 13389 ft | 377 kts | 112° |
| 2026-05-08 21:38 | 25.81666 | 54.61047 | 12544 ft | 378 kts | 112° |
| 2026-05-08 21:38 | 25.80797 | 54.63785 | 11989 ft | 374 kts | 112° |
| 2026-05-08 21:39 | 25.79933 | 54.66507 | 11397 ft | 373 kts | 112° |
| 2026-05-08 21:39 | 25.79071 | 54.69218 | 10791 ft | 371 kts | 112° |
| 2026-05-08 21:39 | 25.78212 | 54.71912 | 10205 ft | 370 kts | 112° |
| 2026-05-08 21:39 | 25.77362 | 54.74578 | 9937 ft | 359 kts | 112° |
| 2026-05-08 21:40 | 25.76555 | 54.77121 | 9930 ft | 340 kts | 112° |
| 2026-05-08 21:40 | 25.75797 | 54.79516 | 9912 ft | 317 kts | 112° |
| 2026-05-08 21:40 | 25.75086 | 54.81760 | 9658 ft | 309 kts | 112° |
| 2026-05-08 21:41 | 25.73662 | 54.86213 | 9237 ft | 306 kts | 112° |
| 2026-05-08 21:41 | 25.72949 | 54.88435 | 9115 ft | 305 kts | 112° |
| 2026-05-08 21:41 | 25.72237 | 54.90651 | 8983 ft | 306 kts | 112° |
| 2026-05-08 21:41 | 25.71486 | 54.92974 | 8982 ft | 331 kts | 112° |
| 2026-05-08 21:42 | 25.70699 | 54.95408 | 8981 ft | 338 kts | 112° |
| 2026-05-08 21:42 | 25.69910 | 54.97871 | 8982 ft | 339 kts | 112° |
| 2026-05-08 21:42 | 25.69125 | 55.00338 | 8983 ft | 340 kts | 112° |
| 2026-05-08 21:42 | 25.68323 | 55.02797 | 8977 ft | 338 kts | 115° |
| 2026-05-08 21:43 | 25.67221 | 55.05078 | 8978 ft | 335 kts | 122° |
| 2026-05-08 21:43 | 25.66064 | 55.07317 | 8976 ft | 335 kts | 122° |
| 2026-05-08 21:43 | 25.64903 | 55.09554 | 8978 ft | 334 kts | 122° |
| 2026-05-08 21:43 | 25.64132 | 55.11035 | 8975 ft | 334 kts | 122° |
| 2026-05-08 21:44 | 25.62973 | 55.13271 | 8977 ft | 334 kts | 122° |
| 2026-05-08 21:44 | 25.61815 | 55.15508 | 8978 ft | 334 kts | 122° |
| 2026-05-08 21:44 | 25.60658 | 55.17731 | 8978 ft | 334 kts | 122° |
| 2026-05-08 21:44 | 25.59154 | 55.20620 | 8897 ft | 311 kts | 122° |
| 2026-05-08 21:45 | 25.58101 | 55.22649 | 8506 ft | 298 kts | 122° |
| 2026-05-08 21:45 | 25.57083 | 55.24616 | 8073 ft | 289 kts | 121° |
| 2026-05-08 21:45 | 25.56422 | 55.25898 | 7983 ft | 278 kts | 122° |
| 2026-05-08 21:45 | 25.55436 | 55.27809 | 7980 ft | 293 kts | 121° |
| 2026-05-08 21:46 | 25.54433 | 55.29755 | 7964 ft | 285 kts | 121° |
| 2026-05-08 21:46 | 25.53469 | 55.31624 | 7812 ft | 275 kts | 121° |
| 2026-05-08 21:46 | 25.52524 | 55.33443 | 7520 ft | 271 kts | 122° |
| 2026-05-08 21:46 | 25.51579 | 55.35245 | 7182 ft | 270 kts | 121° |
| 2026-05-08 21:47 | 25.50634 | 55.37038 | 6831 ft | 269 kts | 121° |
| 2026-05-08 21:47 | 25.49691 | 55.38827 | 6501 ft | 268 kts | 121° |
| 2026-05-08 21:47 | 25.48757 | 55.40601 | 6030 ft | 266 kts | 121° |
| 2026-05-08 21:47 | 25.47836 | 55.42346 | 5474 ft | 266 kts | 122° |
| 2026-05-08 21:48 | 25.46883 | 55.44099 | 4919 ft | 265 kts | 122° |
| 2026-05-08 21:48 | 25.45927 | 55.45838 | 4487 ft | 260 kts | 122° |
| 2026-05-08 21:48 | 25.45012 | 55.47502 | 4258 ft | 247 kts | 123° |
| 2026-05-08 21:48 | 25.44107 | 55.49104 | 3865 ft | 245 kts | 124° |
| 2026-05-08 21:49 | 25.43176 | 55.50685 | 3430 ft | 245 kts | 124° |
| 2026-05-08 21:49 | 25.42233 | 55.52259 | 3053 ft | 245 kts | 124° |
| 2026-05-08 21:49 | 25.41448 | 55.53564 | 2994 ft | 246 kts | 124° |
| 2026-05-08 21:49 | 25.40496 | 55.55146 | 3004 ft | 248 kts | 124° |
| 2026-05-08 21:50 | 25.39541 | 55.56742 | 3030 ft | 250 kts | 124° |
| 2026-05-08 21:50 | 25.38589 | 55.58350 | 3046 ft | 249 kts | 124° |
| 2026-05-08 21:50 | 25.37645 | 55.59959 | 3058 ft | 249 kts | 123° |
| 2026-05-08 21:50 | 25.36715 | 55.61566 | 3055 ft | 246 kts | 123° |
| 2026-05-08 21:51 | 25.35819 | 55.63132 | 2948 ft | 238 kts | 123° |
| 2026-05-08 21:51 | 25.34921 | 55.64659 | 2741 ft | 235 kts | 124° |
| 2026-05-08 21:51 | 25.34019 | 55.66161 | 2540 ft | 232 kts | 125° |
| 2026-05-08 21:51 | 25.33133 | 55.67614 | 2532 ft | 227 kts | 125° |
| 2026-05-08 21:52 | 25.32261 | 55.69062 | 2495 ft | 226 kts | 123° |
| 2026-05-08 21:52 | 25.31411 | 55.70526 | 2454 ft | 226 kts | 122° |
| 2026-05-08 21:52 | 25.30545 | 55.71957 | 2439 ft | 217 kts | 129° |
| 2026-05-08 21:52 | 25.29518 | 55.73082 | 2419 ft | 204 kts | 146° |
| 2026-05-08 21:53 | 25.28279 | 55.73819 | 2445 ft | 201 kts | 166° |
| 2026-05-08 21:53 | 25.26943 | 55.74054 | 2465 ft | 195 kts | 188° |
| 2026-05-08 21:53 | 25.25653 | 55.73754 | 2471 ft | 186 kts | 210° |
| 2026-05-08 21:53 | 25.24625 | 55.72985 | 2439 ft | 170 kts | 233° |
| 2026-05-08 21:54 | 25.24048 | 55.71945 | 2461 ft | 156 kts | 258° |
| 2026-05-08 21:54 | 25.23912 | 55.70770 | 2480 ft | 155 kts | 276° |
| 2026-05-08 21:54 | 25.24145 | 55.69599 | 2522 ft | 166 kts | 291° |
| 2026-05-08 21:54 | 25.24601 | 55.68364 | 2540 ft | 178 kts | 295° |
| 2026-05-08 21:55 | 25.25128 | 55.67124 | 2539 ft | 175 kts | 297° |
| 2026-05-08 21:55 | 25.25551 | 55.65942 | 2511 ft | 158 kts | 290° |
| 2026-05-08 21:55 | 25.25921 | 55.64845 | 2425 ft | 148 kts | 295° |
| 2026-05-08 21:56 | 25.26863 | 55.62868 | 2148 ft | 144 kts | 298° |
| 2026-05-08 21:56 | 25.27366 | 55.61925 | 2001 ft | 142 kts | 302° |
| 2026-05-08 21:56 | 25.27878 | 55.60993 | 1810 ft | 142 kts | 297° |
| 2026-05-08 21:56 | 25.28364 | 55.60052 | 1613 ft | 141 kts | 300° |
| 2026-05-08 21:57 | 25.28892 | 55.59141 | 1367 ft | 141 kts | 301° |
| 2026-05-08 21:57 | 25.29411 | 55.58217 | 1160 ft | 141 kts | 300° |
| 2026-05-08 21:57 | 25.29924 | 55.57311 | 998 ft | 142 kts | 300° |
| 2026-05-08 21:57 | 25.30466 | 55.56374 | 808 ft | 149 kts | 300° |
| 2026-05-08 21:58 | 25.31025 | 55.55392 | 608 ft | 151 kts | 301° |
| 2026-05-08 21:58 | 25.31584 | 55.54414 | 357 ft | 148 kts | 299° |
| 2026-05-08 21:58 | 25.32126 | 55.53465 | 207 ft | 145 kts | 299° |
| 2026-05-08 21:58 | 25.32650 | 55.52546 | 98 ft | 130 kts | 302° |
| 2026-05-08 21:59 | 25.33077 | 55.51805 | 91 ft | 103 kts | 302° |
| 2026-05-08 21:59 | 25.33396 | 55.51253 | 85 ft | 41 kts | 302° |
| 2026-05-08 21:59 | 25.33463 | 55.51081 | 82 ft | 23 kts | 268° |
| 2026-05-08 21:59 | 25.33419 | 55.50982 | 83 ft | 13 kts | 216° |
| 2026-05-08 22:00 | 25.33341 | 55.50928 | 88 ft | 14 kts | 213° |
| 2026-05-08 22:00 | 25.33252 | 55.50866 | 83 ft | 16 kts | 212° |
| 2026-05-08 22:00 | 25.33194 | 55.50836 | 88 ft | 8 kts | 186° |
| 2026-05-08 22:00 | 25.33153 | 55.50865 | 87 ft | 7 kts | 122° |
| 2026-05-08 22:01 | 25.33131 | 55.50906 | 85 ft | 8 kts | 121° |
| 2026-05-08 22:01 | 25.33092 | 55.50971 | 88 ft | 10 kts | 123° |
| 2026-05-08 22:01 | 25.33057 | 55.51033 | 87 ft | 9 kts | 122° |
| 2026-05-08 22:01 | 25.33028 | 55.51083 | 89 ft | 7 kts | 122° |